Time;durP1;ratioP1;P1;durP2;ratioP2;P2;SDS_P1;SDS_P2;PMS_P1;PMS_P2;Temp;Humidity;BMP_temperature;BMP_pressure;BME280_temperature;BME280_humidity;BME280_pressure;Samples;Min_cycle;Max_cycle;Signal;HPM_P1;HPM_P2
2023/01/15 00:01:19;;;;;;;29.00;2.58;;;6.70;99.90;;;;;;5070444;28;20064;-57
2023/01/15 00:03:46;;;;;;;14.43;2.15;;;6.70;99.90;;;;;;5070765;28;20372;-56
2023/01/15 00:06:15;;;;;;;17.75;2.92;;;6.70;99.90;;;;;;5054742;28;20076;-56
2023/01/15 00:08:42;;;;;;;19.73;2.45;;;6.70;99.90;;;;;;5054622;28;20407;-52
2023/01/15 00:11:08;;;;;;;17.70;4.50;;;6.70;99.90;;;;;;5054556;28;20102;-55
2023/01/15 00:13:35;;;;;;;22.05;6.00;;;6.70;99.90;;;;;;5050293;28;20098;-57
2023/01/15 00:16:03;;;;;;;13.60;2.28;;;6.70;99.90;;;;;;5048159;28;20467;-55
2023/01/15 00:18:31;;;;;;;15.60;2.35;;;6.70;99.90;;;;;;5066304;28;20053;-54
2023/01/15 00:20:59;;;;;;;17.52;3.05;;;6.70;99.90;;;;;;5065089;28;20107;-57
2023/01/15 00:28:56;;;;;;;15.38;2.25;;;6.60;99.90;;;;;;5050215;28;20132;-55
2023/01/15 00:31:23;;;;;;;16.95;2.70;;;6.70;99.90;;;;;;5035010;28;20451;-56
2023/01/15 00:33:51;;;;;;;17.25;2.72;;;6.60;99.90;;;;;;5065420;28;20230;-55
2023/01/15 00:36:18;;;;;;;21.33;2.33;;;6.60;99.90;;;;;;5067072;28;20917;-51
2023/01/15 00:38:44;;;;;;;15.57;2.55;;;6.60;99.90;;;;;;5068794;28;20056;-56
2023/01/15 00:41:11;;;;;;;18.95;2.88;;;6.70;99.90;;;;;;5050875;28;20560;-56
2023/01/15 00:43:38;;;;;;;15.95;2.95;;;6.60;99.90;;;;;;5068286;28;20095;-55
2023/01/15 00:46:07;;;;;;;17.50;2.55;;;6.60;99.90;;;;;;5070400;28;20048;-56
2023/01/15 00:48:34;;;;;;;15.57;2.75;;;6.60;99.90;;;;;;5068930;28;20447;-56
2023/01/15 00:51:02;;;;;;;23.38;2.85;;;6.70;99.90;;;;;;5051487;28;20531;-46
2023/01/15 00:53:29;;;;;;;15.48;2.10;;;6.60;99.90;;;;;;5068847;28;20051;-52
2023/01/15 00:55:56;;;;;;;17.65;2.15;;;6.60;99.90;;;;;;5041154;28;20132;-55
2023/01/15 00:58:22;;;;;;;17.00;2.95;;;6.60;99.90;;;;;;5043532;28;20499;-55
2023/01/15 01:00:53;;;;;;;18.15;2.22;;;6.70;99.90;;;;;;5070137;28;20120;-54
2023/01/15 01:03:20;;;;;;;18.30;2.13;;;6.60;99.90;;;;;;5053035;28;20570;-55
2023/01/15 01:05:46;;;;;;;16.30;2.10;;;6.70;99.90;;;;;;5054904;28;20045;-55
2023/01/15 01:08:15;;;;;;;25.30;2.75;;;6.60;99.90;;;;;;5069062;28;20084;-55
2023/01/15 01:10:41;;;;;;;16.63;2.50;;;6.70;99.90;;;;;;5067336;28;20376;-56
2023/01/15 01:13:08;;;;;;;19.63;2.25;;;6.60;99.90;;;;;;5071183;28;20048;-52
2023/01/15 01:15:35;;;;;;;18.75;2.85;;;6.60;99.90;;;;;;5048435;28;20125;-55
2023/01/15 01:18:02;;;;;;;17.13;2.88;;;6.60;99.90;;;;;;5052056;28;20393;-56
2023/01/15 01:20:29;;;;;;;11.05;2.00;;;6.60;99.90;;;;;;5054316;28;20076;-56
2023/01/15 01:22:55;;;;;;;19.88;3.03;;;6.60;99.90;;;;;;5071729;28;20053;-55
2023/01/15 01:25:23;;;;;;;17.48;2.63;;;6.60;99.90;;;;;;5059042;28;20527;-55
2023/01/15 01:27:50;;;;;;;21.77;2.38;;;6.60;99.90;;;;;;5039881;28;20084;-53
2023/01/15 01:30:17;;;;;;;17.73;2.42;;;6.60;99.90;;;;;;5051326;28;20083;-56
2023/01/15 01:32:45;;;;;;;12.07;1.90;;;6.60;99.90;;;;;;5053683;28;20136;-55
2023/01/15 01:35:11;;;;;;;26.92;2.60;;;6.60;99.90;;;;;;5050032;28;20061;-57
2023/01/15 01:37:38;;;;;;;20.92;2.60;;;6.50;99.90;;;;;;5048558;28;20087;-48
2023/01/15 01:40:06;;;;;;;16.52;2.15;;;6.50;99.90;;;;;;5051714;28;20049;-55
2023/01/15 01:42:34;;;;;;;22.88;2.70;;;6.50;99.90;;;;;;5050880;28;20073;-53
2023/01/15 01:45:07;;;;;;;19.10;2.45;;;6.50;99.90;;;;;;5048861;28;20135;-56
2023/01/15 01:47:34;;;;;;;22.80;3.33;;;6.50;99.90;;;;;;5049707;28;20103;-55
2023/01/15 01:50:04;;;;;;;15.98;2.20;;;6.50;99.90;;;;;;5049081;28;20095;-50
2023/01/15 01:52:31;;;;;;;12.93;1.85;;;6.50;99.90;;;;;;5050400;28;20049;-56
2023/01/15 01:54:58;;;;;;;16.40;1.90;;;6.50;99.90;;;;;;5048546;28;20556;-54
2023/01/15 01:57:25;;;;;;;21.23;3.17;;;6.50;99.90;;;;;;5047701;28;20076;-55
2023/01/15 01:59:53;;;;;;;15.00;2.97;;;6.50;99.90;;;;;;5048802;28;20091;-56
2023/01/15 02:02:20;;;;;;;19.80;2.17;;;6.50;99.90;;;;;;5048873;28;20201;-56
2023/01/15 02:04:47;;;;;;;14.35;1.77;;;6.50;99.90;;;;;;5031822;28;20091;-55
2023/01/15 02:07:14;;;;;;;25.63;2.65;;;6.50;99.90;;;;;;5045856;28;20085;-55
2023/01/15 02:09:41;;;;;;;20.90;2.47;;;6.40;99.90;;;;;;5042432;28;20136;-53
2023/01/15 02:12:11;;;;;;;20.75;2.83;;;6.50;99.90;;;;;;5042381;28;20087;-56
2023/01/15 02:14:39;;;;;;;17.85;2.42;;;6.40;99.90;;;;;;5053905;28;20081;-56
2023/01/15 02:17:10;;;;;;;16.75;2.55;;;6.40;99.90;;;;;;5054482;28;20080;-55
2023/01/15 02:19:43;;;;;;;19.13;2.80;;;6.40;99.90;;;;;;5036285;28;20045;-55
2023/01/15 02:22:13;;;;;;;20.13;2.30;;;6.40;99.90;;;;;;5047992;28;20088;-56
2023/01/15 02:24:44;;;;;;;20.60;2.42;;;6.40;99.90;;;;;;5052532;28;20095;-52
2023/01/15 02:27:15;;;;;;;16.73;2.35;;;6.50;99.90;;;;;;5049847;28;20045;-55
2023/01/15 02:29:54;;;;;;;15.95;2.78;;;6.40;99.90;;;;;;5052871;28;20052;-54
2023/01/15 02:32:29;;;;;;;20.75;2.58;;;6.50;99.90;;;;;;5053306;28;20082;-47
2023/01/15 02:34:58;;;;;;;15.27;2.45;;;6.40;99.90;;;;;;5052128;28;20092;-52
2023/01/15 02:37:26;;;;;;;20.85;2.70;;;6.40;99.90;;;;;;5051985;28;20406;-56
2023/01/15 02:39:53;;;;;;;16.83;2.55;;;6.40;99.90;;;;;;5073629;28;20080;-55
2023/01/15 02:42:21;;;;;;;17.45;2.40;;;6.40;99.90;;;;;;5069805;28;20395;-56
2023/01/15 02:44:49;;;;;;;20.25;2.85;;;6.40;99.90;;;;;;5057335;28;20052;-53
2023/01/15 02:47:16;;;;;;;18.38;2.80;;;6.30;99.90;;;;;;5055288;28;20480;-55
2023/01/15 02:49:43;;;;;;;11.93;2.15;;;6.40;99.90;;;;;;5053523;28;20084;-56
2023/01/15 02:52:14;;;;;;;15.02;2.78;;;6.30;99.90;;;;;;5055879;28;20052;-54
2023/01/15 02:54:43;;;;;;;20.88;3.05;;;6.30;99.90;;;;;;5057380;28;20052;-55
2023/01/15 02:57:10;;;;;;;21.60;2.67;;;6.30;99.90;;;;;;5056463;28;20049;-56
2023/01/15 02:59:39;;;;;;;21.08;2.65;;;6.30;99.90;;;;;;5074363;28;20106;-56
2023/01/15 03:02:07;;;;;;;13.05;2.40;;;6.30;99.90;;;;;;5054950;28;20406;-57
2023/01/15 03:04:36;;;;;;;24.67;2.70;;;6.30;99.90;;;;;;5073632;28;20052;-56
2023/01/15 03:07:06;;;;;;;18.75;3.10;;;6.30;99.90;;;;;;5068066;28;20559;-56
2023/01/15 03:09:33;;;;;;;19.90;2.70;;;6.30;99.90;;;;;;5055445;28;20420;-49
2023/01/15 03:12:03;;;;;;;18.88;2.92;;;6.30;99.90;;;;;;5055541;28;20118;-51
2023/01/15 03:14:32;;;;;;;17.23;2.67;;;6.30;99.90;;;;;;5072833;28;20074;-54
2023/01/15 03:17:03;;;;;;;24.10;3.95;;;6.30;99.90;;;;;;5042089;28;20132;-56
2023/01/15 03:19:31;;;;;;;17.30;2.88;;;6.30;99.90;;;;;;5044405;28;20076;-52
2023/01/15 03:21:59;;;;;;;17.70;2.85;;;6.30;99.90;;;;;;5071169;28;20515;-55
2023/01/15 03:24:30;;;;;;;26.75;3.30;;;6.30;99.90;;;;;;5073109;28;20048;-52
2023/01/15 03:26:57;;;;;;;16.95;2.45;;;6.30;99.90;;;;;;5073006;28;20052;-56
2023/01/15 03:29:24;;;;;;;25.63;3.10;;;6.30;99.90;;;;;;5070841;28;20044;-50
2023/01/15 03:31:51;;;;;;;23.73;2.97;;;6.30;99.90;;;;;;5054686;28;20080;-57
2023/01/15 03:34:19;;;;;;;19.38;3.00;;;6.20;99.90;;;;;;5055035;28;20080;-55
2023/01/15 03:36:46;;;;;;;19.83;3.10;;;6.30;99.90;;;;;;5071417;28;20458;-56
2023/01/15 03:39:13;;;;;;;20.20;2.78;;;6.30;99.90;;;;;;5072070;28;20048;-56
2023/01/15 03:41:47;;;;;;;24.95;3.40;;;6.30;99.90;;;;;;5072070;28;20488;-56
2023/01/15 03:44:18;;;;;;;23.27;2.50;;;6.30;99.90;;;;;;5070633;28;20087;-56
2023/01/15 03:46:58;;;;;;;17.30;2.40;;;6.20;99.90;;;;;;5046260;28;20052;-57
2023/01/15 03:49:32;;;;;;;14.05;2.53;;;6.20;99.90;;;;;;5071958;28;20045;-57
2023/01/15 03:52:01;;;;;;;23.13;2.95;;;6.20;99.90;;;;;;5072816;28;20052;-57
2023/01/15 03:54:33;;;;;;;19.25;2.65;;;6.20;99.90;;;;;;5067067;28;20499;-56
2023/01/15 03:57:03;;;;;;;21.42;2.30;;;6.20;99.90;;;;;;5055591;28;20053;-56
2023/01/15 03:59:32;;;;;;;22.63;2.60;;;6.20;99.90;;;;;;5044634;28;20081;-56
2023/01/15 04:01:59;;;;;;;17.67;2.85;;;6.20;99.90;;;;;;5053811;28;20535;-53
2023/01/15 04:04:27;;;;;;;25.88;3.17;;;6.20;99.90;;;;;;5053245;28;20060;-57
2023/01/15 04:06:54;;;;;;;17.42;2.65;;;6.20;99.90;;;;;;5043603;28;20107;-56
2023/01/15 04:09:21;;;;;;;21.38;3.13;;;6.10;99.90;;;;;;5067439;28;20087;-55
2023/01/15 04:11:48;;;;;;;25.17;2.65;;;6.10;99.90;;;;;;5053737;28;20048;-54
2023/01/15 04:14:15;;;;;;;15.45;2.58;;;6.10;99.90;;;;;;5071425;28;20144;-56
2023/01/15 04:16:41;;;;;;;19.67;2.60;;;6.10;99.90;;;;;;5053834;28;20148;-49
2023/01/15 04:19:08;;;;;;;18.23;2.40;;;6.10;99.90;;;;;;5072013;28;20044;-54
2023/01/15 04:21:36;;;;;;;18.00;2.72;;;6.10;99.90;;;;;;5054190;28;20114;-54
2023/01/15 04:24:04;;;;;;;22.83;2.55;;;6.10;99.90;;;;;;5068611;28;20053;-56
2023/01/15 04:26:30;;;;;;;23.55;3.17;;;6.10;99.90;;;;;;5053306;28;20083;-56
2023/01/15 04:28:57;;;;;;;21.10;2.63;;;6.10;99.90;;;;;;5053313;28;20537;-56
2023/01/15 04:31:24;;;;;;;25.60;2.88;;;6.10;99.90;;;;;;5071980;28;20057;-55
2023/01/15 04:33:51;;;;;;;20.73;2.80;;;6.10;99.90;;;;;;5051465;28;20528;-55
2023/01/15 04:36:17;;;;;;;22.42;3.38;;;6.00;99.90;;;;;;5048346;28;20053;-56
2023/01/15 04:38:46;;;;;;;17.38;2.40;;;6.00;99.90;;;;;;5048322;28;20162;-55
2023/01/15 04:44:08;;;;;;;23.10;3.10;;;6.00;99.90;;;;;;5048312;28;20120;-56
2023/01/15 04:46:37;;;;;;;19.20;2.88;;;6.00;99.90;;;;;;5051781;28;20053;-51
2023/01/15 04:49:04;;;;;;;24.13;3.28;;;6.00;99.90;;;;;;5052222;28;20111;-53
2023/01/15 04:51:30;;;;;;;17.88;2.85;;;6.00;99.90;;;;;;5051621;28;20052;-52
2023/01/15 04:54:00;;;;;;;20.20;2.40;;;6.00;99.90;;;;;;5039881;28;20156;-56
2023/01/15 04:56:27;;;;;;;20.15;2.50;;;6.00;99.90;;;;;;5039095;28;20088;-56
2023/01/15 04:58:54;;;;;;;23.38;2.70;;;6.00;99.90;;;;;;5049132;28;20473;-57
2023/01/15 05:01:21;;;;;;;18.92;3.22;;;6.00;99.90;;;;;;5050067;28;20045;-57
2023/01/15 05:03:48;;;;;;;19.88;3.05;;;6.00;99.90;;;;;;5050579;28;20424;-54
2023/01/15 05:06:16;;;;;;;21.83;2.60;;;6.00;99.90;;;;;;5046801;28;20048;-56
2023/01/15 05:08:43;;;;;;;13.20;2.30;;;6.00;99.90;;;;;;5047395;28;20064;-55
2023/01/15 05:11:11;;;;;;;19.02;2.83;;;6.00;99.90;;;;;;5048783;28;20052;-56
2023/01/15 05:13:38;;;;;;;22.85;2.72;;;5.90;99.90;;;;;;5048785;28;20060;-54
2023/01/15 05:16:12;;;;;;;16.27;3.42;;;6.00;99.90;;;;;;5050078;28;20049;-56
2023/01/15 05:18:39;;;;;;;18.45;2.85;;;5.90;99.90;;;;;;5037989;28;20057;-56
2023/01/15 05:21:06;;;;;;;17.13;2.50;;;5.90;99.90;;;;;;5050760;28;20053;-56
2023/01/15 05:23:33;;;;;;;22.20;2.53;;;5.90;99.90;;;;;;5050689;28;20115;-43
2023/01/15 05:26:03;;;;;;;16.83;2.47;;;5.90;99.90;;;;;;5052054;28;20451;-54
2023/01/15 05:28:31;;;;;;;13.90;2.15;;;5.90;99.90;;;;;;5050746;28;20497;-55
2023/01/15 05:30:58;;;;;;;22.35;3.03;;;5.90;99.90;;;;;;5049942;28;20099;-53
2023/01/15 05:33:25;;;;;;;16.23;2.63;;;6.00;99.90;;;;;;5049936;28;20084;-54
2023/01/15 05:35:51;;;;;;;17.02;2.70;;;5.80;99.90;;;;;;5057208;28;20542;-55
2023/01/15 05:38:18;;;;;;;27.98;3.97;;;5.80;99.90;;;;;;5071134;28;20142;-54
2023/01/15 05:40:45;;;;;;;17.15;2.80;;;5.80;99.90;;;;;;5071001;28;20040;-56
2023/01/15 05:43:12;;;;;;;21.35;2.28;;;5.80;99.90;;;;;;5072564;28;20548;-55
2023/01/15 05:45:40;;;;;;;17.55;2.75;;;5.70;99.90;;;;;;5057863;28;20083;-49
2023/01/15 05:48:07;;;;;;;16.85;2.30;;;5.80;99.90;;;;;;5074226;28;20056;-55
2023/01/15 05:50:34;;;;;;;11.95;1.90;;;5.70;99.90;;;;;;5075207;28;20052;-43
2023/01/15 05:53:00;;;;;;;14.05;2.10;;;5.70;99.90;;;;;;5074733;28;20465;-55
2023/01/15 05:55:27;;;;;;;22.65;2.90;;;5.70;99.90;;;;;;5071227;28;20120;-55
2023/01/15 05:57:54;;;;;;;17.45;3.55;;;5.70;99.90;;;;;;5055898;28;20437;-53
2023/01/15 06:00:22;;;;;;;24.00;2.88;;;5.60;99.90;;;;;;5072508;28;20094;-55
2023/01/15 06:02:50;;;;;;;23.05;2.75;;;5.60;99.90;;;;;;5057921;28;20473;-49
2023/01/15 06:05:19;;;;;;;16.25;2.80;;;5.60;99.90;;;;;;5075459;28;20170;-53
2023/01/15 06:07:48;;;;;;;15.45;2.42;;;5.50;99.90;;;;;;5055132;28;20044;-56
2023/01/15 06:10:16;;;;;;;16.13;2.40;;;5.60;99.90;;;;;;5073428;28;20040;-55
2023/01/15 06:12:43;;;;;;;18.05;2.47;;;5.60;99.90;;;;;;5053112;28;20541;-55
2023/01/15 06:15:11;;;;;;;19.00;2.50;;;5.60;99.90;;;;;;5073158;28;20052;-55
2023/01/15 06:17:37;;;;;;;13.95;2.28;;;5.60;99.90;;;;;;5075535;28;20450;-55
2023/01/15 06:20:07;;;;;;;18.85;2.50;;;5.60;99.90;;;;;;5051603;28;20084;-53
2023/01/15 06:22:34;;;;;;;18.20;2.55;;;5.60;99.90;;;;;;5074665;28;20052;-55
2023/01/15 06:25:01;;;;;;;15.45;2.72;;;5.60;99.90;;;;;;5074645;28;20098;-54
2023/01/15 06:27:28;;;;;;;21.17;2.80;;;5.60;99.90;;;;;;5056914;28;20569;-55
2023/01/15 06:29:57;;;;;;;17.70;2.15;;;5.60;99.90;;;;;;5052009;28;20111;-57
2023/01/15 06:32:25;;;;;;;13.95;2.47;;;5.50;99.90;;;;;;5074834;28;20045;-52
2023/01/15 06:34:52;;;;;;;19.58;2.25;;;5.60;99.90;;;;;;5075153;28;20118;-57
2023/01/15 06:37:20;;;;;;;19.38;3.03;;;5.50;99.90;;;;;;5057434;28;20056;-55
2023/01/15 06:39:47;;;;;;;19.20;3.38;;;5.50;99.90;;;;;;5056171;28;20458;-56
2023/01/15 06:47:44;;;;;;;28.30;3.42;;;5.40;99.90;;;;;;5074367;28;20052;-54
2023/01/15 06:50:11;;;;;;;21.63;2.33;;;5.40;99.90;;;;;;5073819;28;20040;-47
2023/01/15 06:52:39;;;;;;;18.08;2.17;;;5.40;99.90;;;;;;5056222;28;20737;-55
2023/01/15 06:55:07;;;;;;;18.60;2.88;;;5.40;99.90;;;;;;5068220;28;20041;-55
2023/01/15 06:57:33;;;;;;;14.38;2.53;;;5.30;99.90;;;;;;5070559;28;20049;-54
2023/01/15 07:00:00;;;;;;;21.83;2.63;;;5.30;99.90;;;;;;5072853;28;20083;-53
2023/01/15 07:02:27;;;;;;;16.23;2.30;;;5.30;99.90;;;;;;5071011;28;20102;-49
2023/01/15 07:04:54;;;;;;;19.02;2.50;;;5.30;99.90;;;;;;5056547;28;20080;-55
2023/01/15 07:07:22;;;;;;;21.15;2.50;;;5.30;99.90;;;;;;5056612;28;20049;-56
2023/01/15 07:09:50;;;;;;;16.83;2.80;;;5.30;99.90;;;;;;5068330;28;20045;-52
2023/01/15 07:12:17;;;;;;;14.57;2.80;;;5.20;99.90;;;;;;5070705;28;20130;-54
2023/01/15 07:14:44;;;;;;;15.93;2.20;;;5.20;99.90;;;;;;5065007;28;20063;-56
2023/01/15 07:17:10;;;;;;;19.60;2.70;;;5.20;99.90;;;;;;5037394;28;20495;-55
2023/01/15 07:19:37;;;;;;;19.77;2.75;;;5.20;99.90;;;;;;5054757;28;20135;-56
2023/01/15 07:22:04;;;;;;;19.75;2.42;;;5.20;99.90;;;;;;5068215;28;20147;-56
2023/01/15 07:24:31;;;;;;;15.60;2.03;;;5.20;99.90;;;;;;5072109;28;20048;-51
2023/01/15 07:26:59;;;;;;;17.55;2.15;;;5.10;99.90;;;;;;5068347;28;20080;-55
2023/01/15 07:29:26;;;;;;;15.15;2.65;;;5.20;99.90;;;;;;5066629;28;20096;-55
2023/01/15 07:31:53;;;;;;;16.92;3.65;;;5.10;99.90;;;;;;5069366;28;20040;-55
2023/01/15 07:34:20;;;;;;;13.30;1.90;;;5.10;99.90;;;;;;5068116;28;20048;-56
2023/01/15 07:36:46;;;;;;;19.10;2.45;;;5.10;99.90;;;;;;5048100;28;20053;-54
2023/01/15 07:39:13;;;;;;;15.02;1.70;;;5.10;99.90;;;;;;5070392;28;20457;-53
2023/01/15 07:50:00;;;;;;;15.68;2.22;;;5.10;99.90;;;;;;5049061;28;20412;-48
2023/01/15 07:52:27;;;;;;;21.48;2.30;;;5.10;99.90;;;;;;5053731;28;20114;-53
2023/01/15 07:54:53;;;;;;;18.13;2.15;;;5.10;99.90;;;;;;5071414;28;20396;-57
2023/01/15 07:57:21;;;;;;;11.27;1.70;;;5.00;99.90;;;;;;5068160;28;20076;-52
2023/01/15 07:59:49;;;;;;;12.70;2.03;;;5.10;99.90;;;;;;5040634;28;20469;-43
2023/01/15 08:02:16;;;;;;;13.85;2.05;;;5.20;99.90;;;;;;5052357;28;20135;-55
2023/01/15 08:04:43;;;;;;;11.75;1.67;;;4.90;99.90;;;;;;5054965;28;20045;-53
2023/01/15 08:07:11;;;;;;;17.10;2.17;;;5.00;99.90;;;;;;5037710;28;20139;-46
2023/01/15 08:09:38;;;;;;;12.15;1.98;;;5.00;99.90;;;;;;5039934;28;20044;-54
2023/01/15 08:17:35;;;;;;;13.75;2.08;;;4.90;99.90;;;;;;5039461;28;20060;-50
2023/01/15 08:20:02;;;;;;;16.80;1.85;;;4.90;99.90;;;;;;5060632;28;20109;-54
2023/01/15 08:22:29;;;;;;;14.75;2.20;;;5.00;99.90;;;;;;5067949;28;20139;-56
2023/01/15 08:24:56;;;;;;;12.23;1.85;;;4.90;99.90;;;;;;5050891;28;20087;-48
2023/01/15 08:27:23;;;;;;;10.98;2.20;;;4.90;99.90;;;;;;5054172;28;20513;-55
2023/01/15 08:29:51;;;;;;;13.60;1.90;;;5.00;99.90;;;;;;5071012;28;20045;-55
2023/01/15 08:32:17;;;;;;;15.48;2.78;;;5.00;99.90;;;;;;5046472;28;20084;-53
2023/01/15 08:34:44;;;;;;;12.48;1.77;;;5.00;99.90;;;;;;5053822;28;20115;-51
2023/01/15 08:37:11;;;;;;;17.05;2.10;;;5.00;99.90;;;;;;5058069;28;20079;-52
2023/01/15 08:39:38;;;;;;;19.02;2.67;;;5.00;99.90;;;;;;5049418;28;20056;-52
2023/01/15 08:42:05;;;;;;;15.95;2.38;;;5.00;99.90;;;;;;5063350;28;20073;-53
2023/01/15 08:44:31;;;;;;;18.30;2.42;;;5.10;99.90;;;;;;5057148;28;20080;-53
2023/01/15 08:47:00;;;;;;;11.95;1.95;;;5.20;99.90;;;;;;5069567;28;20053;-54
2023/01/15 08:49:26;;;;;;;12.18;1.98;;;5.30;99.90;;;;;;5039999;28;20106;-53
2023/01/15 08:51:53;;;;;;;15.13;1.92;;;5.30;99.90;;;;;;5059560;28;20056;-55
2023/01/15 08:54:21;;;;;;;10.10;1.70;;;5.40;99.90;;;;;;5048361;28;20088;-54
2023/01/15 08:56:48;;;;;;;9.38;1.80;;;5.40;99.90;;;;;;5065516;28;20760;-53
2023/01/15 08:59:15;;;;;;;15.40;1.85;;;5.40;99.90;;;;;;5069818;28;20534;-55
2023/01/15 09:01:43;;;;;;;20.40;2.38;;;5.40;99.90;;;;;;5071929;28;20084;-54
2023/01/15 09:04:13;;;;;;;12.10;1.65;;;5.40;99.90;;;;;;5069951;28;20048;-54
2023/01/15 09:06:39;;;;;;;13.32;1.90;;;5.40;99.90;;;;;;5069138;28;20075;-55
2023/01/15 09:09:06;;;;;;;16.48;2.10;;;5.30;99.90;;;;;;5078900;28;20047;-57
2023/01/15 09:11:33;;;;;;;8.95;1.73;;;5.30;99.90;;;;;;5042438;28;20063;-53
2023/01/15 09:14:00;;;;;;;11.30;1.85;;;5.20;99.90;;;;;;5051751;28;20524;-56
2023/01/15 09:16:27;;;;;;;6.43;1.35;;;5.10;99.90;;;;;;5067947;28;20056;-56
2023/01/15 09:18:53;;;;;;;8.00;1.70;;;5.00;99.90;;;;;;5071266;28;20476;-56
2023/01/15 09:21:22;;;;;;;6.35;1.38;;;4.90;99.90;;;;;;5074495;28;20052;-52
2023/01/15 09:23:48;;;;;;;9.35;1.23;;;4.80;99.90;;;;;;5048685;28;20077;-55
2023/01/15 09:26:29;;;;;;;6.63;1.20;;;4.80;99.90;;;;;;5067491;28;20467;-53
2023/01/15 09:28:56;;;;;;;6.10;1.20;;;4.70;99.90;;;;;;5056129;28;20452;-48
2023/01/15 09:31:23;;;;;;;9.07;1.63;;;4.70;99.90;;;;;;5057777;28;20109;-54
2023/01/15 09:33:49;;;;;;;8.15;1.48;;;4.60;99.90;;;;;;5055147;28;20080;-45
2023/01/15 09:36:16;;;;;;;10.68;1.52;;;4.70;99.90;;;;;;5047822;28;20085;-56
2023/01/15 09:38:44;;;;;;;11.38;2.05;;;4.60;99.90;;;;;;5073447;28;20056;-55
2023/01/15 09:42:04;;;;;;;13.70;2.17;;;4.70;99.90;;;;;;5071749;28;20133;-51
2023/01/15 09:44:07;;;;;;;11.25;1.98;;;4.70;99.90;;;;;;5078526;28;20052;-54
2023/01/15 09:46:37;;;;;;;14.07;1.98;;;4.80;99.90;;;;;;5052897;28;20110;-54
2023/01/15 09:49:07;;;;;;;13.35;2.08;;;5.00;99.90;;;;;;5054720;28;20149;-52
2023/01/15 09:51:37;;;;;;;15.40;2.03;;;5.00;99.90;;;;;;5052207;28;20440;-55
2023/01/15 09:54:15;;;;;;;11.15;1.50;;;5.10;99.90;;;;;;5068605;28;20135;-53
2023/01/15 09:56:42;;;;;;;13.23;2.20;;;5.20;99.90;;;;;;5043614;28;20349;-56
2023/01/15 09:59:17;;;;;;;14.10;2.22;;;5.10;99.90;;;;;;5073561;28;20084;-55
2023/01/15 10:01:43;;;;;;;20.35;2.60;;;5.10;99.90;;;;;;5073921;28;20053;-55
2023/01/15 10:04:15;;;;;;;18.33;2.53;;;5.00;99.90;;;;;;5073491;28;20136;-60
2023/01/15 10:06:43;;;;;;;12.05;1.80;;;5.10;99.90;;;;;;5054141;28;20083;-57
2023/01/15 10:09:13;;;;;;;10.20;1.85;;;5.10;99.90;;;;;;5073545;28;20052;-56
2023/01/15 10:14:37;;;;;;;15.13;2.15;;;5.20;99.90;;;;;;5045570;28;20053;-55
2023/01/15 10:17:06;;;;;;;16.05;2.10;;;5.20;99.90;;;;;;5055017;28;20056;-50
2023/01/15 10:19:33;;;;;;;15.18;1.92;;;5.40;99.90;;;;;;5052144;28;20048;-57
2023/01/15 10:22:01;;;;;;;22.05;2.55;;;5.30;99.90;;;;;;5058883;28;20127;-55
2023/01/15 10:24:31;;;;;;;14.45;2.30;;;5.40;99.90;;;;;;5056921;28;20084;-55
2023/01/15 10:26:59;;;;;;;14.75;2.58;;;5.30;99.90;;;;;;5075064;28;20048;-55
2023/01/15 10:29:30;;;;;;;14.48;2.33;;;5.30;99.90;;;;;;5056887;28;20061;-62
2023/01/15 10:31:59;;;;;;;25.50;2.85;;;5.30;99.90;;;;;;5073315;28;20482;-62
2023/01/15 10:34:41;;;;;;;16.13;2.47;;;5.30;99.90;;;;;;5056724;28;20084;-62
2023/01/15 10:37:10;;;;;;;14.10;2.30;;;5.20;99.90;;;;;;5057206;28;20058;-63
2023/01/15 10:39:42;;;;;;;19.00;2.60;;;5.20;99.90;;;;;;5052972;28;20158;-57
2023/01/15 10:42:13;;;;;;;15.07;2.67;;;5.20;99.90;;;;;;5073550;28;20090;-62
2023/01/15 10:44:44;;;;;;;18.47;2.77;;;5.10;99.90;;;;;;5056205;28;20113;-60
2023/01/15 10:47:12;;;;;;;12.60;2.15;;;5.20;99.90;;;;;;5054503;28;20330;-62
2023/01/15 10:49:39;;;;;;;16.08;2.20;;;5.20;99.90;;;;;;5054148;28;20052;-58
2023/01/15 10:52:07;;;;;;;10.07;1.77;;;5.30;99.90;;;;;;5074356;28;20052;-57
2023/01/15 10:54:36;;;;;;;14.52;1.92;;;5.30;99.90;;;;;;5073400;28;20565;-55
2023/01/15 10:57:11;;;;;;;13.77;1.98;;;5.40;99.90;;;;;;5065101;28;20122;-56
2023/01/15 10:59:40;;;;;;;16.83;2.25;;;5.50;99.90;;;;;;5036826;28;20469;-57
2023/01/15 11:02:18;;;;;;;24.52;2.50;;;5.70;99.90;;;;;;5054108;28;20132;-57
2023/01/15 11:04:45;;;;;;;12.93;1.90;;;5.80;99.90;;;;;;5036440;28;20057;-58
2023/01/15 11:07:12;;;;;;;14.70;1.95;;;5.80;99.90;;;;;;5040323;28;20457;-59
2023/01/15 11:09:39;;;;;;;15.93;2.20;;;5.90;99.90;;;;;;5074044;28;20057;-59
2023/01/15 11:20:33;;;;;;;15.68;2.88;;;6.30;99.90;;;;;;5073812;28;20488;-58
2023/01/15 11:23:06;;;;;;;12.80;1.92;;;6.30;99.90;;;;;;5056589;28;20047;-56
2023/01/15 11:25:38;;;;;;;12.63;2.30;;;6.30;99.90;;;;;;5036057;28;20225;-55
2023/01/15 11:28:07;;;;;;;14.95;2.40;;;6.30;99.90;;;;;;5064720;28;20044;-56
2023/01/15 11:30:36;;;;;;;18.80;2.30;;;6.40;99.90;;;;;;5051035;28;20407;-46
2023/01/15 11:33:03;;;;;;;16.05;2.13;;;6.50;99.90;;;;;;5062077;28;20049;-55
2023/01/15 11:35:30;;;;;;;15.10;2.25;;;6.50;99.90;;;;;;5073784;28;20052;-56
2023/01/15 11:38:04;;;;;;;13.75;1.95;;;6.50;99.90;;;;;;5055471;28;20136;-52
2023/01/15 11:40:31;;;;;;;16.83;3.00;;;6.50;99.90;;;;;;5071513;28;20122;-56
2023/01/15 11:51:19;;;;;;;15.38;2.30;;;6.50;99.90;;;;;;5071931;28;20452;-56
2023/01/15 11:53:47;;;;;;;17.52;2.17;;;6.50;99.90;;;;;;5052890;28;20045;-52
2023/01/15 11:56:15;;;;;;;16.77;2.78;;;6.60;99.90;;;;;;5054423;28;20394;-43
2023/01/15 11:58:45;;;;;;;15.43;2.20;;;6.60;99.90;;;;;;5045734;28;20072;-50
2023/01/15 12:01:15;;;;;;;19.33;2.72;;;6.70;99.90;;;;;;5047491;28;20132;-58
2023/01/15 12:03:42;;;;;;;20.60;2.88;;;6.60;99.90;;;;;;5051846;28;20127;-52
2023/01/15 12:06:10;;;;;;;15.95;2.17;;;6.60;99.90;;;;;;5071276;28;20098;-56
2023/01/15 12:08:49;;;;;;;20.77;2.70;;;6.50;99.90;;;;;;5070092;28;20423;-57
2023/01/15 12:11:28;;;;;;;16.15;2.00;;;6.60;99.90;;;;;;5051479;28;20514;-43
2023/01/15 12:14:02;;;;;;;15.80;2.40;;;6.70;99.90;;;;;;5053369;28;20084;-55
2023/01/15 12:16:32;;;;;;;19.15;2.85;;;6.80;99.90;;;;;;5068283;28;20135;-55
2023/01/15 12:18:59;;;;;;;19.60;2.72;;;6.90;99.90;;;;;;5071554;28;20131;-56
2023/01/15 12:21:59;;;;;;;17.90;2.40;;;6.90;99.90;;;;;;5069077;28;20164;-56
2023/01/15 12:24:50;;;;;;;14.95;2.33;;;6.90;99.90;;;;;;5054568;28;20135;-56
2023/01/15 12:27:28;;;;;;;17.70;2.75;;;6.90;99.90;;;;;;5043533;28;20056;-54
2023/01/15 12:29:58;;;;;;;19.42;2.88;;;6.80;99.90;;;;;;5052701;28;20495;-56
2023/01/15 12:32:30;;;;;;;19.20;2.33;;;6.80;99.90;;;;;;5058197;28;20044;-56
2023/01/15 12:34:58;;;;;;;15.77;2.65;;;6.80;99.90;;;;;;5053610;28;20057;-56
2023/01/15 12:37:26;;;;;;;18.55;2.15;;;6.90;99.90;;;;;;5070072;28;20045;-54
2023/01/15 12:39:57;;;;;;;12.63;2.70;;;6.90;99.90;;;;;;5071649;28;20091;-51
2023/01/15 12:45:10;;;;;;;20.73;2.60;;;7.10;99.90;;;;;;5053416;28;20045;-56
2023/01/15 12:47:42;;;;;;;17.25;2.15;;;7.20;99.90;;;;;;5057529;28;20056;-56
2023/01/15 12:50:22;;;;;;;17.90;2.55;;;7.20;99.90;;;;;;5054711;28;20135;-43
2023/01/15 12:52:50;;;;;;;18.13;2.75;;;7.30;99.90;;;;;;5071820;28;20040;-55
2023/01/15 12:55:19;;;;;;;14.93;2.45;;;7.30;99.90;;;;;;5053646;28;20144;-55
2023/01/15 12:57:48;;;;;;;19.33;3.13;;;7.30;99.90;;;;;;5052966;28;20550;-55
2023/01/15 13:00:17;;;;;;;19.95;2.83;;;7.30;99.90;;;;;;5070750;28;20044;-55
2023/01/15 13:02:55;;;;;;;14.90;2.55;;;7.30;99.90;;;;;;5071040;28;20126;-56
2023/01/15 13:05:26;;;;;;;19.17;2.47;;;7.30;99.90;;;;;;5064638;28;20125;-53
2023/01/15 13:07:55;;;;;;;15.75;2.15;;;7.30;99.90;;;;;;5071279;28;20385;-56
2023/01/15 13:10:23;;;;;;;15.45;2.00;;;7.20;99.90;;;;;;5071978;28;20079;-54
2023/01/15 13:12:49;;;;;;;16.35;2.60;;;7.20;99.90;;;;;;5072872;28;20123;-53
2023/01/15 13:15:17;;;;;;;11.90;2.50;;;7.20;99.90;;;;;;5053663;28;20046;-52
2023/01/15 13:17:54;;;;;;;20.23;3.33;;;7.20;99.90;;;;;;5039265;28;20048;-52
2023/01/15 13:20:29;;;;;;;14.93;2.63;;;7.20;99.90;;;;;;5072502;28;20067;-55
2023/01/15 13:23:03;;;;;;;16.95;2.60;;;7.10;99.90;;;;;;5075469;28;20047;-47
2023/01/15 13:25:41;;;;;;;14.95;2.25;;;7.10;99.90;;;;;;5039956;28;20060;-55
2023/01/15 13:28:18;;;;;;;11.68;2.42;;;7.10;99.90;;;;;;5072339;28;20146;-55
2023/01/15 13:30:52;;;;;;;12.43;2.33;;;7.10;99.90;;;;;;5051967;28;20092;-54
2023/01/15 13:33:26;;;;;;;17.52;3.13;;;7.10;99.90;;;;;;5063602;28;20057;-54
2023/01/15 13:35:54;;;;;;;15.98;2.20;;;7.10;99.90;;;;;;5054009;28;20102;-51
2023/01/15 13:38:22;;;;;;;26.25;3.30;;;7.20;99.90;;;;;;5059161;28;20108;-54
2023/01/15 13:40:51;;;;;;;16.45;2.47;;;7.20;99.90;;;;;;5048244;28;20088;-52
2023/01/15 13:43:34;;;;;;;15.50;2.90;;;7.10;99.90;;;;;;5053093;28;20052;-54
2023/01/15 13:46:02;;;;;;;17.63;3.00;;;7.10;99.90;;;;;;5052236;28;20088;-53